Time;durP1;ratioP1;P1;durP2;ratioP2;P2;SDS_P1;SDS_P2;PMS_P1;PMS_P2;Temp;Humidity;BMP_temperature;BMP_pressure;BME280_temperature;BME280_humidity;BME280_pressure;Samples;Min_cycle;Max_cycle;Signal;HPM_P1;HPM_P2
2020/12/25 00:00:49;;;;;;;8.40;3.77;;;;;;;5.53;77.25;96119.11;1794690;78;26435;-85
2020/12/25 00:03:16;;;;;;;8.35;3.95;;;;;;;5.53;77.25;96121.78;1794785;78;25781;-86
2020/12/25 00:05:45;;;;;;;9.25;4.75;;;;;;;5.53;77.22;96137.33;1798557;78;25830;-86
2020/12/25 00:08:20;;;;;;;9.88;4.45;;;;;;;5.53;77.25;96141.86;1794910;78;26143;-86
2020/12/25 00:10:55;;;;;;;4.22;3.10;;;;;;;5.54;77.30;96160.91;1795865;78;28450;-85
2020/12/25 00:13:23;;;;;;;7.50;3.45;;;;;;;5.49;77.26;96181.59;1794123;78;25350;-86
2020/12/25 00:15:50;;;;;;;6.10;3.05;;;;;;;5.13;76.68;96186.06;1794396;78;25703;-85
2020/12/25 00:18:18;;;;;;;4.10;2.52;;;;;;;4.69;76.86;96206.73;1792835;78;27168;-85
2020/12/25 00:20:50;;;;;;;3.37;2.47;;;;;;;4.54;77.23;96214.11;1800434;78;25826;-84
2020/12/25 00:23:18;;;;;;;3.05;2.02;;;;;;;4.43;77.40;96206.69;1800508;78;27499;-83
2020/12/25 00:25:45;;;;;;;3.15;1.85;;;;;;;4.20;77.29;96216.38;1795079;78;26559;-84
2020/12/25 00:28:12;;;;;;;3.62;2.10;;;;;;;4.08;77.47;96220.65;1793346;78;25786;-85
2020/12/25 00:30:44;;;;;;;3.47;2.12;;;;;;;4.01;77.67;96225.12;1793031;78;25819;-85
2020/12/25 00:33:12;;;;;;;6.03;2.80;;;;;;;3.90;77.66;96228.67;1797053;78;25725;-85
2020/12/25 00:35:42;;;;;;;4.50;2.60;;;;;;;3.67;77.84;96231.33;1809968;78;27549;-84
2020/12/25 00:38:10;;;;;;;4.65;2.58;;;;;;;3.61;78.16;96222.28;1819291;78;25814;-85
2020/12/25 00:40:44;;;;;;;3.95;2.80;;;;;;;3.62;78.41;96219.38;1823923;78;26243;-85
2020/12/25 00:43:14;;;;;;;5.87;3.17;;;;;;;3.62;78.58;96230.59;1807266;78;26511;-85
2020/12/25 00:45:41;;;;;;;6.10;4.05;;;;;;;3.58;78.57;96230.67;1815970;78;25797;-85
2020/12/25 00:48:09;;;;;;;4.90;3.50;;;;;;;3.54;78.75;96237.41;1823145;78;27503;-85
2020/12/25 00:50:38;;;;;;;4.90;3.40;;;;;;;3.50;78.67;96234.84;1821868;78;25722;-85
2020/12/25 00:53:05;;;;;;;4.20;3.47;;;;;;;3.41;78.63;96245.31;1822523;78;26244;-84
2020/12/25 00:55:33;;;;;;;5.10;3.30;;;;;;;3.29;78.68;96255.70;1821214;78;25761;-86
2020/12/25 00:58:00;;;;;;;5.40;3.47;;;;;;;3.25;78.84;96243.28;1809463;78;25804;-86
2020/12/25 01:00:27;;;;;;;6.20;3.52;;;;;;;3.17;78.91;96246.58;1817932;78;28577;-85
2020/12/25 01:02:54;;;;;;;6.95;3.87;;;;;;;3.06;78.91;96241.78;1817295;78;25855;-83
2020/12/25 01:05:22;;;;;;;5.10;3.83;;;;;;;2.95;79.15;96240.46;1821589;78;25722;-85
2020/12/25 01:07:49;;;;;;;6.80;4.10;;;;;;;2.86;79.39;96245.11;1788300;78;25864;-85
2020/12/25 01:10:17;;;;;;;6.22;3.83;;;;;;;2.74;79.63;96241.81;1792426;78;25330;-84
2020/12/25 01:12:45;;;;;;;5.87;3.70;;;;;;;2.68;79.90;96246.05;1790705;78;27609;-83
2020/12/25 01:15:12;;;;;;;6.10;4.40;;;;;;;2.64;79.98;96257.30;1797806;78;25734;-85
2020/12/25 01:17:40;;;;;;;5.85;4.00;;;;;;;2.61;80.11;96262.49;1792105;78;26370;-85
2020/12/25 01:20:07;;;;;;;7.37;4.03;;;;;;;2.65;80.33;96270.94;1797750;78;26472;-84
2020/12/25 01:22:34;;;;;;;5.35;4.00;;;;;;;2.63;80.29;96283.63;1824513;78;25751;-83
2020/12/25 01:25:01;;;;;;;8.05;4.35;;;;;;;2.67;80.44;96291.53;1822945;78;27490;-82
2020/12/25 01:27:29;;;;;;;6.80;3.90;;;;;;;2.70;80.41;96295.16;1802938;78;25751;-85
2020/12/25 01:29:56;;;;;;;9.10;4.45;;;;;;;2.72;80.34;96291.30;1822981;78;25746;-85
2020/12/25 01:32:24;;;;;;;9.28;3.95;;;;;;;2.75;80.38;96283.44;1823022;78;25799;-84
2020/12/25 01:34:51;;;;;;;7.25;4.10;;;;;;;2.71;80.26;96298.14;1823091;78;25302;-84
2020/12/25 01:37:18;;;;;;;6.80;4.12;;;;;;;2.73;80.29;96296.13;1823110;78;27481;-84
2020/12/25 01:39:45;;;;;;;7.78;3.87;;;;;;;2.73;80.31;96306.78;1823063;78;25752;-82
2020/12/25 01:42:13;;;;;;;6.10;3.98;;;;;;;2.78;80.29;96313.69;1814386;78;26035;-83
2020/12/25 01:44:40;;;;;;;6.30;4.08;;;;;;;2.79;80.20;96314.83;1823028;78;25696;-83
2020/12/25 01:47:08;;;;;;;6.08;4.30;;;;;;;2.79;80.15;96315.34;1823119;78;25936;-85
2020/12/25 01:49:35;;;;;;;5.85;4.25;;;;;;;2.80;80.13;96330.31;1822838;78;28535;-84
2020/12/25 01:52:03;;;;;;;6.45;4.10;;;;;;;2.82;80.11;96333.12;1822843;78;26134;-84
2020/12/25 01:54:31;;;;;;;7.00;4.47;;;;;;;2.83;80.05;96332.61;1822973;78;26076;-83
2020/12/25 01:56:58;;;;;;;5.28;3.50;;;;;;;2.85;80.05;96331.92;1822955;78;25718;-84
2020/12/25 01:59:25;;;;;;;6.28;4.10;;;;;;;2.87;80.01;96328.56;1820412;78;25672;-84
2020/12/25 02:01:53;;;;;;;7.08;4.53;;;;;;;2.93;80.00;96333.13;1817473;78;27469;-83
2020/12/25 02:04:20;;;;;;;5.05;3.52;;;;;;;2.98;79.97;96336.56;1817436;78;26117;-84
2020/12/25 02:06:48;;;;;;;5.67;3.98;;;;;;;2.99;79.84;96340.88;1822955;78;25666;-84
2020/12/25 02:09:15;;;;;;;4.87;4.03;;;;;;;3.00;79.76;96340.69;1817421;78;26352;-83
2020/12/25 02:11:43;;;;;;;6.60;4.05;;;;;;;3.03;79.71;96353.62;1817521;78;25801;-83
2020/12/25 02:14:11;;;;;;;5.08;3.25;;;;;;;3.00;79.52;96355.36;1817537;78;27559;-83
2020/12/25 02:16:38;;;;;;;4.30;3.33;;;;;;;2.99;79.48;96356.37;1803070;78;25738;-82
2020/12/25 02:19:05;;;;;;;5.55;4.08;;;;;;;2.97;79.46;96361.56;1811949;78;25781;-83
2020/12/25 02:21:33;;;;;;;6.30;4.30;;;;;;;3.02;79.46;96364.50;1796424;78;25743;-84
2020/12/25 02:24:00;;;;;;;6.80;4.42;;;;;;;3.05;79.47;96366.26;1817536;78;25628;-84
2020/12/25 02:26:27;;;;;;;8.45;5.37;;;;;;;3.09;79.49;96371.55;1811117;78;27424;-83
2020/12/25 02:28:55;;;;;;;7.12;5.15;;;;;;;3.08;79.46;96371.22;1810795;78;26185;-83
2020/12/25 02:31:22;;;;;;;6.92;4.30;;;;;;;3.10;79.43;96375.86;1799111;78;25740;-85
2020/12/25 02:33:49;;;;;;;6.58;4.35;;;;;;;3.12;79.39;96375.67;1817431;78;25716;-81
2020/12/25 02:36:17;;;;;;;5.47;3.95;;;;;;;3.14;79.34;96379.78;1817414;78;25783;-83
2020/12/25 02:38:44;;;;;;;3.42;3.12;;;;;;;3.08;79.19;96370.39;1809884;78;27420;-83
2020/12/25 02:41:11;;;;;;;4.78;3.60;;;;;;;3.03;79.24;96377.61;1814896;78;25869;-83
2020/12/25 02:43:39;;;;;;;5.75;3.98;;;;;;;3.03;79.20;96376.28;1805282;78;25827;-84
2020/12/25 02:46:06;;;;;;;5.92;4.35;;;;;;;3.10;79.24;96373.20;1812778;78;25745;-85
2020/12/25 02:48:33;;;;;;;4.50;3.83;;;;;;;3.09;79.20;96367.55;1817370;78;26350;-83
2020/12/25 02:51:01;;;;;;;5.30;3.98;;;;;;;3.09;79.28;96374.20;1817449;78;27541;-83
2020/12/25 02:53:28;;;;;;;4.55;3.87;;;;;;;3.19;79.33;96381.37;1817454;78;26224;-83
2020/12/25 02:55:55;;;;;;;5.50;3.90;;;;;;;3.25;79.23;96381.97;1820482;78;25698;-83
2020/12/25 02:58:23;;;;;;;6.53;3.80;;;;;;;3.28;79.19;96383.91;1822687;78;25521;-83
2020/12/25 03:00:50;;;;;;;5.65;4.25;;;;;;;3.31;79.13;96384.36;1817412;78;25771;-83
2020/12/25 03:03:17;;;;;;;6.17;4.70;;;;;;;3.31;79.02;96376.87;1817597;78;27503;-83
2020/12/25 03:05:45;;;;;;;6.62;4.45;;;;;;;3.32;78.92;96375.86;1817490;78;26161;-83
2020/12/25 03:08:12;;;;;;;5.72;4.62;;;;;;;3.31;78.87;96380.87;1817443;78;25938;-83
2020/12/25 03:10:39;;;;;;;6.80;5.12;;;;;;;3.29;79.03;96378.39;1817414;78;25758;-83
2020/12/25 03:13:07;;;;;;;7.50;4.40;;;;;;;3.26;79.01;96380.09;1817466;78;25816;-83
2020/12/25 03:15:34;;;;;;;6.00;3.98;;;;;;;3.29;78.99;96384.23;1817408;78;27475;-83
2020/12/25 03:18:01;;;;;;;7.25;4.40;;;;;;;3.29;78.82;96382.90;1817363;78;25693;-83
2020/12/25 03:20:29;;;;;;;6.58;4.50;;;;;;;3.33;78.83;96384.17;1809090;78;26266;-84
2020/12/25 03:22:56;;;;;;;5.83;4.17;;;;;;;3.37;78.86;96384.12;1817357;78;25773;-83
2020/12/25 03:25:23;;;;;;;5.50;4.42;;;;;;;3.36;78.74;96385.96;1817477;78;25770;-83
2020/12/25 03:27:51;;;;;;;6.22;3.83;;;;;;;3.38;78.82;96385.23;1817472;78;27487;-84
2020/12/25 03:30:18;;;;;;;7.75;4.45;;;;;;;3.43;78.82;96384.67;1817110;78;25806;-83
2020/12/25 03:32:45;;;;;;;6.00;4.67;;;;;;;3.37;78.57;96383.62;1817427;78;25731;-84
2020/12/25 03:35:12;;;;;;;7.40;5.30;;;;;;;3.38;78.56;96393.78;1817511;78;25718;-83
2020/12/25 03:37:40;;;;;;;6.00;4.58;;;;;;;3.42;78.61;96401.70;1817518;78;25857;-83
2020/12/25 03:40:07;;;;;;;7.90;5.00;;;;;;;3.44;78.61;96399.16;1817446;78;27544;-83
2020/12/25 03:42:34;;;;;;;8.35;5.08;;;;;;;3.49;78.55;96394.59;1817306;78;25377;-83
2020/12/25 03:45:02;;;;;;;7.30;5.40;;;;;;;3.53;78.53;96396.67;1817384;78;25754;-84
2020/12/25 03:47:29;;;;;;;5.80;5.15;;;;;;;3.56;78.53;96400.80;1818830;78;26516;-84
2020/12/25 03:49:57;;;;;;;10.08;5.80;;;;;;;3.58;78.50;96399.60;1822777;78;25840;-84
2020/12/25 03:52:25;;;;;;;7.83;5.87;;;;;;;3.59;78.50;96398.59;1822767;78;28644;-84
2020/12/25 03:54:52;;;;;;;7.72;5.35;;;;;;;3.57;78.41;96408.63;1820465;78;25993;-83
2020/12/25 03:57:19;;;;;;;9.65;5.90;;;;;;;3.60;78.40;96410.09;1801870;78;25832;-84
2020/12/25 03:59:46;;;;;;;10.72;6.40;;;;;;;3.65;78.43;96405.48;1823062;78;25748;-83
2020/12/25 04:02:14;;;;;;;12.85;6.10;;;;;;;3.59;78.31;96408.44;1822768;78;25899;-83
2020/12/25 04:04:42;;;;;;;10.28;6.25;;;;;;;3.53;78.34;96405.18;1822857;78;28560;-83
2020/12/25 04:07:09;;;;;;;9.65;6.33;;;;;;;3.51;78.48;96407.21;1822716;77;25774;-83
2020/12/25 04:09:36;;;;;;;12.88;6.25;;;;;;;3.49;78.55;96413.27;1822774;78;25733;-84
2020/12/25 04:12:04;;;;;;;8.88;5.78;;;;;;;3.45;78.62;96418.66;1822860;78;25795;-84
2020/12/25 04:14:31;;;;;;;9.38;6.60;;;;;;;3.41;78.58;96422.72;1822944;78;25733;-84
2020/12/25 04:16:58;;;;;;;11.53;7.22;;;;;;;3.38;78.74;96423.92;1822876;78;28437;-85
2020/12/25 04:19:26;;;;;;;10.38;6.85;;;;;;;3.35;78.79;96424.83;1779724;78;25689;-85
2020/12/25 04:21:53;;;;;;;6.85;5.05;;;;;;;3.35;78.91;96426.16;1822915;78;25774;-85
2020/12/25 04:24:20;;;;;;;7.72;6.42;;;;;;;3.25;78.77;96417.97;1822619;78;26358;-85
2020/12/25 04:26:49;;;;;;;7.87;6.22;;;;;;;3.25;78.94;96413.97;1822823;78;25809;-85
2020/12/25 04:29:16;;;;;;;7.58;6.33;;;;;;;3.28;79.04;96418.08;1819953;78;27586;-85
2020/12/25 04:31:45;;;;;;;9.63;6.42;;;;;;;3.33;79.09;96420.19;1817214;78;25890;-85
2020/12/25 04:34:12;;;;;;;11.38;7.00;;;;;;;3.35;79.09;96420.32;1817435;78;25781;-85
2020/12/25 04:36:39;;;;;;;9.78;6.28;;;;;;;3.33;79.01;96420.19;1817281;78;26510;-85
2020/12/25 04:39:08;;;;;;;6.42;5.28;;;;;;;3.31;79.01;96428.88;1820137;78;25695;-85
2020/12/25 04:41:35;;;;;;;7.97;5.47;;;;;;;3.27;79.06;96428.42;1820123;78;27529;-85
2020/12/25 04:44:06;;;;;;;7.58;5.62;;;;;;;3.24;79.06;96432.33;1817355;78;25640;-85
2020/12/25 04:46:34;;;;;;;6.53;4.83;;;;;;;3.24;79.07;96431.49;1817512;78;25683;-85
2020/12/25 04:49:02;;;;;;;8.10;5.20;;;;;;;3.15;78.99;96431.27;1817265;78;25655;-85
2020/12/25 04:51:29;;;;;;;8.08;5.50;;;;;;;3.06;78.92;96432.41;1817278;78;25777;-85
2020/12/25 04:53:56;;;;;;;9.33;5.75;;;;;;;3.04;79.03;96429.09;1817351;78;27490;-85
2020/12/25 04:56:24;;;;;;;8.60;4.47;;;;;;;3.07;79.07;96437.55;1817183;78;25822;-85
2020/12/25 04:58:53;;;;;;;8.83;4.35;;;;;;;3.07;79.08;96434.06;1817303;78;25893;-85
2020/12/25 05:01:20;;;;;;;8.48;4.75;;;;;;;3.08;79.04;96433.87;1817333;78;25737;-85
2020/12/25 05:03:48;;;;;;;6.10;4.80;;;;;;;3.11;79.07;96433.51;1817378;78;25838;-85
2020/12/25 05:06:18;;;;;;;7.67;4.75;;;;;;;3.13;79.05;96440.81;1817427;78;27542;-84
2020/12/25 05:08:49;;;;;;;10.25;5.70;;;;;;;3.13;79.05;96451.48;1822430;78;25703;-84
2020/12/25 05:11:20;;;;;;;10.35;6.17;;;;;;;3.19;79.10;96452.05;1817342;78;26395;-85
2020/12/25 05:13:54;;;;;;;12.20;6.67;;;;;;;3.23;79.10;96460.51;1819533;78;25818;-85
2020/12/25 05:16:23;;;;;;;8.15;5.97;;;;;;;3.25;79.10;96460.64;1817411;78;25798;-85
2020/12/25 05:18:52;;;;;;;6.70;4.80;;;;;;;3.24;79.07;96464.33;1817430;78;27581;-85
2020/12/25 05:21:22;;;;;;;7.15;5.00;;;;;;;3.20;79.06;96461.70;1817224;78;26223;-85
2020/12/25 05:23:50;;;;;;;6.62;4.83;;;;;;;3.08;78.93;96468.54;1817263;78;25696;-85
2020/12/25 05:26:19;;;;;;;9.98;5.00;;;;;;;3.02;79.07;96470.61;1817341;78;26402;-85
2020/12/25 05:28:50;;;;;;;9.73;6.40;;;;;;;3.03;79.20;96476.77;1817406;78;25700;-84
2020/12/25 05:31:18;;;;;;;10.08;7.30;;;;;;;2.94;79.12;96474.72;1817283;78;28386;-85
2020/12/25 05:33:50;;;;;;;11.97;8.33;;;;;;;2.88;79.22;96478.15;1817221;78;25757;-85
2020/12/25 05:36:18;;;;;;;15.10;8.33;;;;;;;2.86;79.37;96478.84;1817556;78;25426;-84
2020/12/25 05:38:50;;;;;;;12.37;8.15;;;;;;;2.87;79.49;96489.81;1818863;78;25692;-85
2020/12/25 05:41:18;;;;;;;10.72;7.15;;;;;;;2.90;79.50;96484.92;1821115;78;25741;-84
2020/12/25 05:43:49;;;;;;;14.58;9.55;;;;;;;2.89;79.46;96489.13;1797174;78;28460;-85
2020/12/25 05:46:16;;;;;;;13.38;8.40;;;;;;;2.84;79.49;96489.67;1817227;78;25734;-82
2020/12/25 05:48:51;;;;;;;11.97;8.38;;;;;;;2.91;79.76;96492.41;1818086;78;26212;-84
2020/12/25 05:51:21;;;;;;;15.58;8.73;;;;;;;2.96;79.84;96499.36;1821146;78;25671;-84
2020/12/25 05:53:53;;;;;;;11.05;8.13;;;;;;;3.02;79.87;96507.94;1822826;78;26239;-84
2020/12/25 05:56:21;;;;;;;9.33;7.05;;;;;;;3.00;79.72;96515.31;1822943;78;27481;-84
2020/12/25 05:58:50;;;;;;;10.60;7.80;;;;;;;2.99;79.58;96518.16;1822765;78;26199;-85
2020/12/25 06:01:18;;;;;;;9.95;6.80;;;;;;;2.79;79.31;96523.21;1822872;78;25832;-83
2020/12/25 06:03:47;;;;;;;10.50;7.45;;;;;;;2.73;79.33;96531.95;1822757;78;26380;-83
2020/12/25 06:06:15;;;;;;;13.43;7.72;;;;;;;2.71;79.39;96532.64;1822853;78;25705;-83
2020/12/25 06:08:57;;;;;;;9.35;7.25;;;;;;;2.71;79.40;96535.31;1822710;78;28466;-84
2020/12/25 06:11:30;;;;;;;10.55;7.80;;;;;;;2.71;79.40;96536.13;1822149;78;25853;-84
2020/12/25 06:13:59;;;;;;;11.38;7.35;;;;;;;2.66;79.34;96533.18;1822971;78;25708;-84
2020/12/25 06:16:28;;;;;;;10.50;7.50;;;;;;;2.59;79.27;96536.77;1822906;78;25575;-83
2020/12/25 06:19:13;;;;;;;11.15;7.87;;;;;;;2.57;79.41;96541.45;1822979;78;25382;-85
2020/12/25 06:21:55;;;;;;;12.13;8.20;;;;;;;2.59;79.50;96542.09;1822684;78;26787;-85
2020/12/25 06:24:27;;;;;;;9.03;7.10;;;;;;;2.63;79.58;96546.06;1823278;78;26342;-84
2020/12/25 06:26:54;;;;;;;10.63;6.83;;;;;;;2.68;79.63;96539.16;1822095;78;25742;-84
2020/12/25 06:29:21;;;;;;;9.55;6.47;;;;;;;2.72;79.59;96542.30;1819885;78;25872;-84
2020/12/25 06:31:49;;;;;;;8.90;6.87;;;;;;;2.73;79.46;96546.62;1797011;78;25765;-86
2020/12/25 06:34:17;;;;;;;11.48;6.67;;;;;;;2.73;79.41;96551.95;1817449;78;27844;-84
2020/12/25 06:36:48;;;;;;;9.38;6.95;;;;;;;2.73;79.37;96561.27;1817436;78;25710;-85
2020/12/25 06:39:21;;;;;;;8.23;5.30;;;;;;;2.75;79.39;96563.25;1817618;78;25741;-85
2020/12/25 06:41:49;;;;;;;10.18;6.90;;;;;;;2.77;79.39;96562.57;1817891;78;25760;-86
2020/12/25 06:44:18;;;;;;;9.58;7.10;;;;;;;2.79;79.40;96568.52;1822405;78;25742;-85
2020/12/25 06:46:49;;;;;;;12.82;7.25;;;;;;;2.81;79.39;96575.83;1817403;78;27489;-86
2020/12/25 06:49:19;;;;;;;10.15;7.75;;;;;;;2.80;79.38;96573.67;1817359;78;26141;-86
2020/12/25 06:51:49;;;;;;;10.65;7.33;;;;;;;2.81;79.38;96570.50;1817246;78;25777;-86
2020/12/25 06:54:21;;;;;;;10.03;7.15;;;;;;;2.83;79.38;96576.48;1817426;78;25711;-85
2020/12/25 06:56:54;;;;;;;9.18;7.42;;;;;;;2.82;79.39;96574.83;1817563;78;25666;-85
2020/12/25 06:59:23;;;;;;;11.43;8.15;;;;;;;2.79;79.40;96574.67;1817584;78;27500;-86
2020/12/25 07:01:52;;;;;;;11.05;7.72;;;;;;;2.72;79.39;96583.59;1817346;78;25667;-85
2020/12/25 07:04:27;;;;;;;9.68;7.55;;;;;;;2.65;79.42;96585.34;1817454;78;25878;-84
2020/12/25 07:07:01;;;;;;;12.03;8.40;;;;;;;2.53;79.48;96580.47;1816014;78;25857;-85
2020/12/25 07:09:41;;;;;;;14.10;8.35;;;;;;;2.56;79.70;96589.08;1815820;78;25328;-86
2020/12/25 07:12:24;;;;;;;16.20;9.65;;;;;;;2.60;79.77;96588.55;1817261;78;27501;-86
2020/12/25 07:14:52;;;;;;;14.65;10.08;;;;;;;2.61;79.76;96590.70;1817350;78;25656;-86
2020/12/25 07:17:19;;;;;;;11.43;8.63;;;;;;;2.63;79.72;96598.85;1817852;78;26525;-85
2020/12/25 07:19:47;;;;;;;12.58;9.13;;;;;;;2.63;79.66;96600.69;1822903;78;26407;-85
2020/12/25 07:22:14;;;;;;;11.63;8.35;;;;;;;2.64;79.65;96599.67;1823034;78;25741;-85
2020/12/25 07:24:43;;;;;;;11.00;9.43;;;;;;;2.63;79.59;96594.85;1822901;78;27536;-86
2020/12/25 07:27:11;;;;;;;12.75;9.78;;;;;;;2.61;79.55;96594.70;1822805;78;25689;-85
2020/12/25 07:29:39;;;;;;;17.65;11.53;;;;;;;2.58;79.51;96599.05;1822548;78;25825;-86
2020/12/25 07:32:09;;;;;;;15.83;11.35;;;;;;;2.54;79.57;96607.41;1822860;78;25724;-86
2020/12/25 07:34:37;;;;;;;16.10;11.38;;;;;;;2.57;79.69;96606.22;1822969;78;25740;-86
2020/12/25 07:37:07;;;;;;;19.30;12.58;;;;;;;2.62;79.76;96611.02;1822962;78;27482;-85
2020/12/25 07:39:34;;;;;;;15.55;11.68;;;;;;;2.67;79.80;96616.61;1822806;78;25733;-86
2020/12/25 07:42:01;;;;;;;16.87;11.43;;;;;;;2.72;79.81;96619.58;1822943;78;25773;-85
2020/12/25 07:44:29;;;;;;;16.27;11.83;;;;;;;2.72;79.77;96615.08;1822901;78;26323;-85
2020/12/25 07:46:56;;;;;;;19.17;10.50;;;;;;;2.72;79.74;96612.91;1822850;78;25705;-85
2020/12/25 07:49:23;;;;;;;13.83;10.60;;;;;;;2.74;79.77;96616.23;1822939;78;27472;-84
2020/12/25 07:51:51;;;;;;;15.10;10.10;;;;;;;2.74;79.77;96621.56;1822656;78;26154;-85
2020/12/25 07:54:19;;;;;;;12.78;9.65;;;;;;;2.75;79.81;96620.55;1822829;78;25773;-85
2020/12/25 07:56:49;;;;;;;13.50;9.35;;;;;;;2.72;79.75;96624.91;1822897;78;26453;-85
2020/12/25 07:59:16;;;;;;;14.05;9.73;;;;;;;2.57;79.74;96623.53;1822816;78;25736;-85
2020/12/25 08:01:45;;;;;;;11.88;9.30;;;;;;;2.53;79.93;96627.09;1802483;78;27613;-84
2020/12/25 08:04:12;;;;;;;13.62;9.83;;;;;;;2.59;80.09;96628.19;1822710;78;25805;-85
2020/12/25 08:06:39;;;;;;;14.33;9.45;;;;;;;2.64;80.17;96621.83;1823007;78;25290;-84
2020/12/25 08:09:10;;;;;;;14.98;11.55;;;;;;;2.70;80.18;96623.75;1802310;78;25856;-84
2020/12/25 08:11:40;;;;;;;16.62;11.70;;;;;;;2.66;80.13;96629.61;1822319;78;25800;-84
2020/12/25 08:14:15;;;;;;;16.60;9.95;;;;;;;2.70;80.17;96625.08;1822940;78;28424;-84
2020/12/25 08:16:44;;;;;;;14.78;10.32;;;;;;;2.76;80.15;96623.55;1822788;78;25653;-85
2020/12/25 08:19:12;;;;;;;18.95;11.97;;;;;;;2.82;80.19;96626.30;1791038;78;25388;-85
2020/12/25 08:21:40;;;;;;;18.95;13.80;;;;;;;2.88;80.12;96626.09;1822891;78;25690;-85
2020/12/25 08:24:09;;;;;;;22.80;15.75;;;;;;;2.97;80.14;96630.81;1822851;78;25371;-84
2020/12/25 08:26:40;;;;;;;21.97;16.40;;;;;;;3.01;80.05;96639.61;1822815;78;28448;-84
2020/12/25 08:29:09;;;;;;;19.75;14.20;;;;;;;3.08;80.04;96647.19;1820471;78;25765;-84
2020/12/25 08:31:38;;;;;;;19.48;14.43;;;;;;;3.10;79.93;96651.02;1817162;78;25770;-84
2020/12/25 08:34:09;;;;;;;19.02;13.80;;;;;;;3.10;79.85;96659.02;1817390;78;25670;-84
2020/12/25 08:36:36;;;;;;;17.95;12.75;;;;;;;3.09;79.82;96666.19;1817238;78;25808;-84
2020/12/25 08:39:03;;;;;;;23.27;14.15;;;;;;;3.14;79.81;96674.45;1817367;78;27539;-85
2020/12/25 08:41:31;;;;;;;20.05;14.53;;;;;;;3.19;79.85;96672.07;1817184;78;26573;-85
2020/12/25 08:44:13;;;;;;;21.48;15.03;;;;;;;3.21;79.78;96676.72;1817259;78;25726;-85
2020/12/25 08:46:42;;;;;;;28.07;16.35;;;;;;;3.23;79.75;96685.37;1817443;78;30730;-84
2020/12/25 08:49:10;;;;;;;34.50;22.70;;;;;;;3.21;79.67;96686.05;1817436;78;26091;-85
2020/12/25 08:51:39;;;;;;;29.07;18.92;;;;;;;3.22;79.67;96690.38;1817260;78;28564;-85
2020/12/25 08:54:07;;;;;;;21.87;14.73;;;;;;;3.25;79.67;96690.02;1817072;78;25785;-84
2020/12/25 08:56:36;;;;;;;19.00;13.38;;;;;;;3.30;79.60;96694.79;1820000;78;25911;-84
2020/12/25 08:59:07;;;;;;;21.45;14.33;;;;;;;3.30;79.48;96692.13;1822837;78;27523;-85
2020/12/25 09:01:38;;;;;;;20.45;14.00;;;;;;;3.32;79.46;96689.28;1814607;78;25868;-85
2020/12/25 09:04:15;;;;;;;18.60;12.88;;;;;;;3.34;79.44;96688.59;1815979;78;27455;-85
2020/12/25 09:06:43;;;;;;;19.17;12.78;;;;;;;3.35;79.47;96687.08;1822688;78;26130;-84
2020/12/25 09:09:11;;;;;;;18.65;12.13;;;;;;;3.38;79.40;96684.55;1822869;78;25848;-85
2020/12/25 09:11:38;;;;;;;17.32;12.10;;;;;;;3.39;79.30;96690.19;1822771;77;25718;-83
2020/12/25 09:14:05;;;;;;;16.25;11.53;;;;;;;3.35;79.24;96690.25;1822900;78;25808;-83
2020/12/25 09:16:33;;;;;;;16.73;11.90;;;;;;;3.39;79.32;96690.19;1780070;78;27495;-85
2020/12/25 09:19:00;;;;;;;15.55;10.53;;;;;;;3.41;79.29;96693.00;1822574;78;25848;-84
2020/12/25 09:21:28;;;;;;;12.37;9.28;;;;;;;3.41;79.25;96694.84;1822792;77;25764;-84
2020/12/25 09:23:56;;;;;;;14.70;10.58;;;;;;;3.38;79.11;96695.23;1785081;78;25572;-84
2020/12/25 09:26:24;;;;;;;17.05;11.18;;;;;;;3.34;78.99;96693.92;1818013;78;25825;-84
2020/12/25 09:28:51;;;;;;;18.17;12.10;;;;;;;3.33;78.99;96692.27;1817387;78;26683;-84
2020/12/25 09:31:19;;;;;;;16.87;12.35;;;;;;;3.36;79.10;96699.91;1817130;78;25328;-83
2020/12/25 09:33:46;;;;;;;16.57;11.00;;;;;;;3.38;79.11;96694.69;1817370;78;25759;-84
2020/12/25 09:36:14;;;;;;;15.18;10.40;;;;;;;3.42;79.13;96697.83;1817360;78;25757;-83
2020/12/25 09:38:43;;;;;;;12.50;9.00;;;;;;;3.46;79.10;96700.46;1817802;78;25753;-84
2020/12/25 09:41:13;;;;;;;13.50;9.25;;;;;;;3.48;78.99;96702.45;1822835;78;28359;-84
2020/12/25 09:43:42;;;;;;;15.03;10.32;;;;;;;3.49;78.95;96702.77;1822897;78;26253;-85
2020/12/25 09:46:10;;;;;;;14.93;9.58;;;;;;;3.49;78.95;96700.10;1822956;78;25823;-85
2020/12/25 09:48:38;;;;;;;13.50;8.65;;;;;;;3.48;78.95;96701.11;1822873;78;26455;-84
2020/12/25 09:51:06;;;;;;;13.10;9.25;;;;;;;3.52;79.01;96696.53;1822889;77;25701;-84
2020/12/25 09:53:34;;;;;;;16.87;9.48;;;;;;;3.58;78.97;96694.98;1808117;78;27481;-85
2020/12/25 09:56:01;;;;;;;14.00;10.32;;;;;;;3.60;78.77;96700.47;1792576;78;25722;-84
2020/12/25 09:58:28;;;;;;;13.50;9.30;;;;;;;3.60;78.70;96698.30;1796749;78;26242;-85
2020/12/25 10:00:56;;;;;;;11.90;8.88;;;;;;;3.60;78.63;96697.80;1794764;78;25814;-84
2020/12/25 10:03:24;;;;;;;11.15;8.00;;;;;;;3.61;78.63;96690.63;1792102;79;25873;-84
2020/12/25 10:05:52;;;;;;;12.68;8.30;;;;;;;3.59;78.50;96699.31;1794271;78;27474;-83
2020/12/25 10:08:19;;;;;;;15.60;10.13;;;;;;;3.57;78.49;96704.83;1792037;78;26500;-84
2020/12/25 10:10:46;;;;;;;18.27;10.32;;;;;;;3.59;78.50;96708.66;1792002;78;25694;-86
2020/12/25 10:13:14;;;;;;;16.15;11.95;;;;;;;3.54;78.48;96712.37;1817770;78;25683;-85
2020/12/25 10:15:41;;;;;;;15.18;10.38;;;;;;;3.53;78.48;96709.37;1808410;78;25826;-84
2020/12/25 10:18:09;;;;;;;19.02;11.20;;;;;;;3.54;78.45;96713.20;1819243;78;27466;-84
2020/12/25 10:20:36;;;;;;;21.62;13.38;;;;;;;3.54;78.39;96719.04;1817548;78;25263;-83
2020/12/25 10:23:03;;;;;;;23.12;13.72;;;;;;;3.53;78.38;96724.05;1806178;78;26250;-84
2020/12/25 10:25:31;;;;;;;18.98;12.18;;;;;;;3.48;78.32;96715.28;1795454;78;25803;-85
2020/12/25 10:27:58;;;;;;;18.23;12.07;;;;;;;3.43;78.25;96719.50;1800077;78;25783;-84
2020/12/25 10:30:26;;;;;;;24.95;13.98;;;;;;;3.37;78.16;96726.92;1816800;78;27488;-86
2020/12/25 10:32:54;;;;;;;20.70;13.20;;;;;;;3.33;78.22;96728.28;1817130;78;26100;-85
2020/12/25 10:35:22;;;;;;;19.73;12.53;;;;;;;3.33;78.30;96722.95;1813530;78;25725;-85
2020/12/25 10:37:50;;;;;;;24.98;14.03;;;;;;;3.36;78.40;96729.26;1794377;78;26409;-85
2020/12/25 10:40:17;;;;;;;20.77;13.05;;;;;;;3.39;78.44;96726.20;1792607;78;25722;-86
2020/12/25 10:42:44;;;;;;;27.40;14.03;;;;;;;3.41;78.44;96728.19;1792225;78;28456;-85
2020/12/25 10:45:11;;;;;;;31.93;15.98;;;;;;;3.46;78.54;96736.48;1793731;78;25821;-85
2020/12/25 10:47:39;;;;;;;21.12;12.90;;;;;;;3.51;78.62;96735.41;1794130;78;25697;-85
2020/12/25 10:50:06;;;;;;;29.55;16.35;;;;;;;3.57;78.65;96738.19;1809199;78;26621;-85
2020/12/25 10:52:34;;;;;;;28.83;14.43;;;;;;;3.62;78.65;96737.65;1811213;78;25702;-85
2020/12/25 10:55:01;;;;;;;36.08;16.77;;;;;;;3.67;78.59;96735.74;1800331;78;28826;-86
2020/12/25 10:57:28;;;;;;;21.73;12.05;;;;;;;3.71;78.55;96742.38;1819949;78;25880;-85
2020/12/25 10:59:55;;;;;;;15.38;9.95;;;;;;;3.73;78.41;96743.86;1802072;78;25745;-85
2020/12/25 11:02:23;;;;;;;13.03;9.13;;;;;;;3.73;78.30;96741.19;1822534;78;25825;-84
2020/12/25 11:04:50;;;;;;;14.80;9.28;;;;;;;3.71;78.17;96740.54;1803246;78;25787;-85
2020/12/25 11:07:17;;;;;;;14.70;9.83;;;;;;;3.73;78.21;96731.02;1771019;78;28530;-85
2020/12/25 11:09:45;;;;;;;15.28;9.80;;;;;;;3.76;78.24;96730.63;1800400;78;26016;-85
2020/12/25 11:12:12;;;;;;;15.38;10.72;;;;;;;3.84;78.32;96724.70;1815278;78;25708;-83
2020/12/25 11:14:41;;;;;;;15.90;10.68;;;;;;;3.91;78.32;96725.59;1798991;78;26288;-85
2020/12/25 11:17:09;;;;;;;17.75;10.13;;;;;;;3.99;78.13;96730.83;1813710;78;25761;-85
2020/12/25 11:19:37;;;;;;;14.47;8.95;;;;;;;4.11;78.10;96726.34;1822141;78;27682;-85
2020/12/25 11:22:05;;;;;;;15.25;9.43;;;;;;;4.28;78.17;96727.27;1822830;78;25728;-86
2020/12/25 11:24:32;;;;;;;12.75;7.72;;;;;;;4.38;77.84;96721.63;1822865;78;26442;-84
2020/12/25 11:26:59;;;;;;;14.05;7.80;;;;;;;4.55;77.80;96715.54;1823054;78;25726;-84
2020/12/25 11:29:27;;;;;;;12.05;8.75;;;;;;;4.64;77.56;96715.22;1819862;78;25719;-84
2020/12/25 11:31:54;;;;;;;15.18;9.50;;;;;;;4.66;77.59;96719.04;1803658;78;28360;-84
2020/12/25 11:34:22;;;;;;;29.00;15.08;;;;;;;4.73;77.59;96719.91;1799160;78;25856;-86
2020/12/25 11:36:49;;;;;;;21.60;12.03;;;;;;;4.63;77.46;96725.59;1809838;78;25807;-85
2020/12/25 11:39:16;;;;;;;22.20;12.30;;;;;;;4.66;77.44;96723.05;1813211;78;25852;-85